Estación Meteorológica Peña el Pijo (Robertgarden) [ 12/14/19 08:41:51 CET ]

Fecha Hora Presion(HPa) Temp (°C) Humedad % Rocio (°C) Viento ( m/s) Direccion Lluvia 1Hora(mm) Lluvia 24H(mm) LLuvia Total(mm)
2019-Aug-19 01:01:43 1011.100 19.6 48 8.3         363.34
2019-Aug-19 02:01:47 1011.000 19.1 51 8.8         363.34
2019-Aug-19 03:01:41 1010.600 19.3 52 9.2         363.34
2019-Aug-19 04:01:43 1010.200 18.1 55 8.8         363.34
2019-Aug-19 05:02:08 1010.000 16.3 62 9.0         363.34
2019-Aug-19 06:06:20 1009.800 14.6 68 8.7         363.34
2019-Aug-19 07:01:39 1010.100 13.5 73 8.7         363.34
2019-Aug-19 08:01:59 1010.300 13.3 74 8.7         363.34
2019-Aug-19 09:01:49 1010.400 19.3 65 12.5         363.34
2019-Aug-19 10:01:51 1010.400 25.8 48 13.9         363.34
2019-Aug-19 11:01:40 1010.300 30.3 37 13.9         363.34
2019-Aug-19 12:01:45 1010.300 32.3 26 10.1         363.34
2019-Aug-19 13:01:41 1010.600 32.9 26 10.7 1.7 WNW     363.34
2019-Aug-19 14:01:36 1010.400 35.4 20 9.1         363.34
2019-Aug-19 15:01:52 1009.600 36.4 15 4.9         363.34
2019-Aug-19 16:02:01 1009.200 37.5 14 4.8         363.34
2019-Aug-19 17:01:26 1008.900 37.9 13 4.0         363.34
2019-Aug-19 18:01:40 1008.700 36.8 13 3.2         363.34
2019-Aug-19 19:01:46 1009.000 31.9 31 12.6         363.34
2019-Aug-19 20:01:32 1009.600 28.6 41 13.9         363.34
2019-Aug-19 21:01:36 1009.700 26.5 47 14.2         363.34
2019-Aug-19 22:01:49 1010.400 23.9 53 13.7         363.34
2019-Aug-19 23:01:41 1010.900 21.5 59 13.2         363.34

Temperatura Máxima:37°    Temperatura Mínima:13°
Presión Máxima:1011.100 Hpa    Presión Mínima:1008.700 Hpa


Volver